Pagrindinis puslapis
METAR-TAF:

METAR-TAF

Oro uostai :

Čengdu, Kinija

platuma: 30-40N, ilguma: 104-01E, Aukštis: 508 m

Dabartinis oras

Ataskaita buvo paskelbta 1 valandą ir 1 minutes, ne 22:00 UTC
Vėjas 4 kt iš Pietų, svyruoja nuo Rytų/Pietryčių ir Pietvakarių
Temperatūra 19°C
Drėgmė 88%
Slėgis 1021 hPa
Matomumas: 6000 m
Mažai debesys ne aukštis 5000 ft

METAR: ZUUU 192200Z 18002MPS 120V220 6000 FEW050 19/17 Q1021 NOSIG

Laikas: 07:01 (23:01 UTC)

Prognozė

Ataskaita buvo paskelbta 8 valandos ir 56 minutes, ne 14:05 UTC
Prognozė galioja nuo 19 metu 18 UTC su 20 metu 18 UTC
Vėjas 8 kt iš Šiaurės/Šiaurės Rytų
Matomumas: 5000 m
Išsisklaidę debesys ne aukštis 4000 ft
rūkana
Laikinai
nuo 19 metu 18 UTC su 19 metu 21 UTC
lietus

TAF: ZUUU 191405Z 1918/2018 02004MPS 5000 BR SCT040 TX26/2007Z TN17/1922Z TEMPO 1918/1921 -SHRA

Orai ataskaitas ir orų prognozės (METAR, TAF).

turimą stotys yra geltonos ir raudonos taškus žemėlapyje.

Perkelti pele per norėdami pamatyti stoties vardą.

Tada spustelėkite, norėdami matyti oro stebėjimo ir prognozės.

Norėdami pakeisti žemėlapį: spustelėkite ant žalios mygtukų su juodo kryžiaus žemyn,; žalią mygtuką su brūkšneliu, jei norite nutolinti; arba žalių rodyklių gretimoms žemėlapius.


METAR-TAF: